Bauang Weathercam more information Bauang Weathercam


Thunder radar more information blitzortung!


Rain radar more information rain snow radar


Visit other webcamsites:

Live CameraLivecam

EarthCamLivecam

YoutubeYoutube live stream



Nearby METAR Reports

   
RPLC - Angeles/Pampanga, Philippines
Distance from station: S 165 km
Updated: 02-07-2020 23:00
NOT Current
Mostly Cloudy  
Mostly Cloudy  
   Wind: West 1.5 m/s
Wind: West 1.5 m/s
Temperature: 27°C
Heat Index: 30°C
Dew Point: 24°C
Humidity: 84%
Barometer: 1011 hPa
Clouds: Mostly Cloudy
Visibility: 8 km
Cloud details: Partly Cloudy 609.6 m,
Mostly Cloudy 3048 m
RPLC 021500Z 27003KT 8000 SCT020 BKN100 27/24 Q1011 NOSIG RMK A2985
RPLI - Laoag Intl(Ph-Ar, Philippines
Distance from station: N 172 km
Updated: 02-07-2020 23:00
NOT Current
Thunderstorm, Partly Cloudy  
Thunderstorm, Partly Cloudy  
   Wind: East 2.1 m/s
Wind: East 2.1 m/s
Temperature: 28°C
Heat Index: 33°C
Dew Point: 26°C
Humidity: 89%
Barometer: 1010 hPa
Clouds: Partly Cloudy
Visibility: More than 10 km
Cloud details: Few Clouds 518.2 m,
Partly Cloudy 8839.2 m
RPLI 021500Z 09004KT 9999 TS FEW017CB SCT290 28/26 Q1010 NOSIG RMK A2982 CB NE
RPLB - Olongapo/Subic, Philippines
Distance from station: S 203 km
Updated: 02-07-2020 23:00
NOT Current
Partly Cloudy  
Partly Cloudy  
   Wind: ENE 3.1 m/s
Wind: ENE 3.1 m/s
Temperature: 27°C
Heat Index: 31°C
Dew Point: 25°C
Humidity: 89%
Barometer: 1011 hPa
Clouds: Partly Cloudy
Visibility: More than 10 km
Cloud details: Few Clouds 609.6 m,
Partly Cloudy 9144 m
RPLB 021500Z 07006KT 9999 FEW020 SCT300 27/25 Q1011 NOSIG RMK A2985
RPLL - Ninoy Aquino Int, Philippines
Distance from station: SSE 246 km
Updated: 02-07-2020 23:00
NOT Current
Mostly Cloudy  
Mostly Cloudy  
   Wind: East 2.6 m/s
Wind: East 2.6 m/s
Temperature: 31°C
Heat Index: 37°C
Dew Point: 24°C
Humidity: 66%
Barometer: 1010 hPa
Clouds: Mostly Cloudy
Visibility: 9 km
Cloud details: Mostly Cloudy 2773.7 m
RPLL 021500Z AUTO 10005KT 070V130 9000 BKN091 31/24 Q1010
RPMR - Romblon/Tablas I, Philippines
Distance from station: SSE 498 km
Updated: 02-07-2020 12:00
NOT Current
Light Showers, Rain, Overcast  
Light Showers, Rain, Overcast  
   Wind: South 4.1 m/s
Wind: South 4.1 m/s
Temperature: 26°C
Dew Point: 24°C
Humidity: 89%
Barometer: 1011 hPa
Clouds: Overcast
Visibility: More than 10 km
Cloud details: Few Clouds 548.6 m,
Overcast 2438.4 m
RPMR 020400Z 18008KT 9999 -SHRA FEW018 OVC080 26/24 Q1011 RMK A2987 LGHT RASH
RPVP - Puerto Princesa, Philippines
Distance from station: SSW 778 km
Updated: 02-07-2020 23:00
NOT Current
Mostly Cloudy  
Mostly Cloudy  
   Wind: West 2.1 m/s
Wind: West 2.1 m/s
Temperature: 27°C
Heat Index: 30°C
Dew Point: 24°C
Humidity: 84%
Barometer: 1010 hPa
Clouds: Mostly Cloudy
Visibility: More than 10 km
Cloud details: Few Clouds 579.1 m,
Mostly Cloudy 2438.4 m
RPVP 021500Z 27004KT 9999 FEW019 BKN080 27/24 Q1010 RMK A2983 RETS
RPVM - Mactan-Cebu, Philippines
Distance from station: SSE 800 km
Updated: 02-07-2020 23:00
NOT Current
Partly Cloudy  
Partly Cloudy  
   Wind: ENE 3.1 m/s
Wind: ENE 3.1 m/s
Temperature: 29°C
Heat Index: 34°C
Dew Point: 25°C
Humidity: 79%
Barometer: 1011 hPa
Clouds: Partly Cloudy
Visibility: More than 10 km
Cloud details: Few Clouds 548.6 m,
Partly Cloudy 3048 m
RPVM 021500Z 06006KT 9999 FEW018CB SCT100 29/25 Q1011 RMK A2985 FQNT LTHG SE THRU W N
RPMZ - Zamboanga (civ/A, Philippines
Distance from station: S 1090 km
Updated: 02-07-2020 23:00
NOT Current
Overcast  
Overcast  
   Wind: West 1 m/s
Wind: West 1 m/s
Temperature: 26°C
Dew Point: 25°C
Humidity: 94%
Barometer: 1011 hPa
Clouds: Overcast
Visibility: More than 10 km
Cloud details: Few Clouds 518.2 m,
Overcast 2743.2 m
RPMZ 021500Z 28002KT 9999 FEW017 OVC090 26/25 Q1011 RMK A2985
RPMD - Davao/Francisco, Philippines
Distance from station: SSE 1198 km
Updated: 02-07-2020 23:00
NOT Current
Nearby Showers, Partly Cloudy  
Nearby Showers, Partly Cloudy  
   Wind: varies 1 m/s
Wind: varies 1 m/s
Temperature: 26°C
Dew Point: 26°C
Humidity: 100%
Barometer: 1011 hPa
Clouds: Partly Cloudy
Visibility: More than 10 km
Cloud details: Few Clouds 457.2 m,
Partly Cloudy 2743.2 m
RPMD 021500Z VRB02KT 9999 VCSH FEW015CB SCT090 26/26 Q1011 RMK A2985 CB WTH DSTNT PCPN SW

Script developed by  Saratoga-weather.org Adapted for the template by  Weerstation Leuven

You find our weather info also at:

WeatherCloud

Austria Weather Network

HAMweather, WeatherForYou, PWS Weather

Philippine Atmospheric, Geophysical and Astronomical Services Administration